createdAt,value
2018-12-14T00:00:20.569Z,96.30
2018-12-14T00:03:23.889Z,96.30
2018-12-14T00:06:27.224Z,96.30
2018-12-14T00:09:30.440Z,96.10
2018-12-14T00:12:33.959Z,95.90
2018-12-14T00:15:37.322Z,95.50
2018-12-14T00:18:40.541Z,95.60
2018-12-14T00:21:43.957Z,95.90
2018-12-14T00:24:47.319Z,95.60
2018-12-14T00:27:50.982Z,95.60
2018-12-14T00:30:54.236Z,95.80
2018-12-14T00:33:57.496Z,96.40
2018-12-14T00:37:00.762Z,96.30
2018-12-14T00:40:04.722Z,96.20
2018-12-14T00:43:08.019Z,95.90
2018-12-14T00:46:11.316Z,96.00
2018-12-14T00:49:14.524Z,96.00
2018-12-14T00:52:17.810Z,96.40
2018-12-14T00:55:21.048Z,95.70
2018-12-14T00:58:24.364Z,96.20
2018-12-14T01:01:27.689Z,96.20
2018-12-14T01:04:30.924Z,95.80
2018-12-14T01:07:34.157Z,95.80
2018-12-14T01:10:37.496Z,95.30
2018-12-14T01:13:40.726Z,94.70
2018-12-14T01:16:43.972Z,94.40
2018-12-14T01:19:47.276Z,94.90
2018-12-14T01:22:50.481Z,95.20
2018-12-14T01:25:53.942Z,95.40
2018-12-14T01:28:57.270Z,95.30
2018-12-14T01:32:00.483Z,95.20
2018-12-14T01:35:03.975Z,94.90
2018-12-14T01:38:07.266Z,95.40
2018-12-14T01:41:10.502Z,95.40
2018-12-14T01:44:13.756Z,95.50
2018-12-14T01:47:17.066Z,95.60
2018-12-14T01:50:20.572Z,95.70
2018-12-14T01:53:23.904Z,95.40
2018-12-14T01:56:27.151Z,95.20
2018-12-14T01:59:30.364Z,95.10
2018-12-14T02:02:33.592Z,94.90
2018-12-14T02:05:36.835Z,94.80
2018-12-14T02:08:40.045Z,94.90
2018-12-14T02:11:43.330Z,95.00
2018-12-14T02:14:46.800Z,94.90
2018-12-14T02:17:50.022Z,95.10
2018-12-14T02:20:53.326Z,94.90
2018-12-14T02:23:56.582Z,94.70
2018-12-14T02:26:59.918Z,95.00
2018-12-14T02:30:16.823Z,94.80
2018-12-14T02:33:20.165Z,94.40
2018-12-14T02:36:23.480Z,94.30
2018-12-14T02:39:26.726Z,94.50
2018-12-14T02:42:30.125Z,94.10
2018-12-14T02:45:33.424Z,94.10
2018-12-14T02:48:36.654Z,94.50
2018-12-14T02:51:39.892Z,94.60
2018-12-14T02:54:43.245Z,94.90
2018-12-14T02:57:46.590Z,94.70
2018-12-14T03:00:50.034Z,95.20
2018-12-14T03:03:53.304Z,94.30
2018-12-14T03:06:56.532Z,95.00
2018-12-14T03:09:59.900Z,94.90
2018-12-14T03:13:03.112Z,94.60
2018-12-14T03:16:06.425Z,94.20
2018-12-14T03:19:09.677Z,94.50
2018-12-14T03:22:14.304Z,94.50
2018-12-14T03:25:17.532Z,94.30
2018-12-14T03:28:20.808Z,95.00
2018-12-14T03:31:24.110Z,94.40
2018-12-14T03:34:27.492Z,94.40
2018-12-14T03:37:30.696Z,94.50
2018-12-14T03:40:33.958Z,94.80
2018-12-14T03:43:37.436Z,94.30
2018-12-14T03:46:41.001Z,94.40
2018-12-14T03:49:44.214Z,94.50
2018-12-14T03:52:47.890Z,94.90
2018-12-14T03:55:51.101Z,94.70
2018-12-14T03:58:54.503Z,94.50
2018-12-14T04:01:57.897Z,94.00
2018-12-14T04:05:01.115Z,94.80
2018-12-14T04:08:04.388Z,95.10
2018-12-14T04:11:07.604Z,95.30
2018-12-14T04:14:10.985Z,95.10
2018-12-14T04:17:14.234Z,95.20
2018-12-14T04:20:17.513Z,95.00
2018-12-14T04:23:20.746Z,95.50
2018-12-14T04:26:23.979Z,95.00
2018-12-14T04:29:27.263Z,94.40
2018-12-14T04:32:30.486Z,94.80
2018-12-14T04:35:33.743Z,95.40
2018-12-14T04:38:37.055Z,95.00
2018-12-14T04:41:40.453Z,95.20
2018-12-14T04:44:43.661Z,94.70
2018-12-14T04:47:46.947Z,95.00
2018-12-14T04:50:50.162Z,94.90
2018-12-14T04:53:53.437Z,94.50
2018-12-14T04:56:56.834Z,94.60
2018-12-14T05:00:00.179Z,94.90
2018-12-14T05:03:03.526Z,94.90
2018-12-14T05:06:06.904Z,95.00
2018-12-14T05:09:10.212Z,94.90
2018-12-14T05:12:13.529Z,94.70
2018-12-14T05:15:16.931Z,95.00
2018-12-14T05:18:20.140Z,94.50
2018-12-14T05:21:23.522Z,94.70
2018-12-14T05:24:26.817Z,94.60
2018-12-14T05:27:30.060Z,95.10
2018-12-14T05:30:33.304Z,95.50
2018-12-14T05:33:36.913Z,95.40
2018-12-14T05:36:40.215Z,95.50
2018-12-14T05:39:43.536Z,95.50
2018-12-14T05:42:46.807Z,95.30
2018-12-14T05:45:50.098Z,94.90
2018-12-14T05:48:53.384Z,94.90
2018-12-14T05:51:57.573Z,94.30
2018-12-14T05:55:00.936Z,94.30
2018-12-14T05:58:04.221Z,94.60
2018-12-14T06:01:07.472Z,94.70
2018-12-14T06:04:11.011Z,94.60
2018-12-14T06:07:14.308Z,95.20
2018-12-14T06:10:17.559Z,94.90
2018-12-14T06:13:20.893Z,95.10
2018-12-14T06:16:24.133Z,94.70
2018-12-14T06:19:27.602Z,94.60
2018-12-14T06:22:30.896Z,94.30
2018-12-14T06:25:34.166Z,94.70
2018-12-14T06:28:37.388Z,94.70
2018-12-14T06:31:40.684Z,95.00
2018-12-14T06:34:43.983Z,94.70
2018-12-14T06:37:47.212Z,94.40
2018-12-14T06:40:50.476Z,94.80
2018-12-14T06:43:53.762Z,94.60
2018-12-14T06:46:57.067Z,94.60
2018-12-14T06:50:00.290Z,94.50
2018-12-14T06:53:03.881Z,94.40
2018-12-14T06:56:07.217Z,94.80
2018-12-14T06:59:10.468Z,94.70
2018-12-14T07:02:13.770Z,94.90
2018-12-14T07:05:17.018Z,95.00
2018-12-14T07:08:20.357Z,95.30
2018-12-14T07:11:23.650Z,94.70
2018-12-14T07:14:26.948Z,94.90
2018-12-14T07:17:30.165Z,94.40
2018-12-14T07:20:33.540Z,94.50
2018-12-14T07:23:36.758Z,94.40
2018-12-14T07:26:40.037Z,94.60
2018-12-14T07:29:43.370Z,94.60
2018-12-14T07:32:46.592Z,94.70
2018-12-14T07:35:49.812Z,94.50
2018-12-14T07:38:53.119Z,94.50
2018-12-14T07:41:56.418Z,94.50
2018-12-14T07:44:59.744Z,94.50
2018-12-14T07:48:03.054Z,94.30
2018-12-14T07:51:06.308Z,94.60
2018-12-14T07:54:09.607Z,94.40
2018-12-14T07:57:12.902Z,94.30
2018-12-14T08:00:16.199Z,94.40
2018-12-14T08:03:19.497Z,94.40
2018-12-14T08:06:22.765Z,94.10
2018-12-14T08:09:26.050Z,94.00
2018-12-14T08:12:29.301Z,94.00
2018-12-14T08:15:32.810Z,94.20
2018-12-14T08:18:36.082Z,94.30
2018-12-14T08:21:39.296Z,94.20
2018-12-14T08:24:42.576Z,94.50
2018-12-14T08:27:45.820Z,94.50
2018-12-14T08:30:49.068Z,94.40
2018-12-14T08:33:52.296Z,94.70
2018-12-14T08:36:55.560Z,94.10
2018-12-14T08:39:58.781Z,94.20
2018-12-14T08:43:02.156Z,94.60
2018-12-14T08:46:05.388Z,94.30
2018-12-14T08:49:08.612Z,95.00
2018-12-14T08:52:11.893Z,94.70
2018-12-14T08:55:15.214Z,94.60
2018-12-14T08:58:18.436Z,94.80
2018-12-14T09:01:21.671Z,94.90
2018-12-14T09:04:24.897Z,94.60
2018-12-14T09:07:28.225Z,94.30
2018-12-14T09:10:31.523Z,94.50
2018-12-14T09:13:34.857Z,94.60
2018-12-14T09:16:38.216Z,94.50
2018-12-14T09:19:41.515Z,94.40
2018-12-14T09:22:44.777Z,94.30
2018-12-14T09:25:48.042Z,94.30
2018-12-14T09:28:51.718Z,94.40
2018-12-14T09:31:55.012Z,94.60
2018-12-14T09:34:58.363Z,94.80
2018-12-14T09:38:01.608Z,94.60
2018-12-14T09:41:04.845Z,94.90
2018-12-14T09:44:08.201Z,94.90
2018-12-14T09:47:11.421Z,95.10
2018-12-14T09:50:14.712Z,94.40
2018-12-14T09:53:18.092Z,94.70
2018-12-14T09:56:21.320Z,94.00
2018-12-14T09:59:24.581Z,94.00
2018-12-14T10:02:27.901Z,94.10
2018-12-14T10:05:31.178Z,94.30
2018-12-14T10:08:34.413Z,94.40
2018-12-14T10:11:37.775Z,94.20
2018-12-14T10:14:41.178Z,94.30
2018-12-14T10:17:44.487Z,94.60
2018-12-14T10:20:47.805Z,94.60
2018-12-14T10:23:51.156Z,94.50
2018-12-14T10:26:54.358Z,94.10
2018-12-14T10:29:57.657Z,94.50
2018-12-14T10:33:00.893Z,93.80
2018-12-14T10:36:04.251Z,94.10
2018-12-14T10:39:07.550Z,94.40
2018-12-14T10:42:10.884Z,94.40
2018-12-14T10:45:14.260Z,94.50
2018-12-14T10:48:17.542Z,94.50
2018-12-14T10:51:20.748Z,94.50
2018-12-14T10:54:24.135Z,94.40
2018-12-14T10:57:27.347Z,94.30
2018-12-14T11:00:36.210Z,94.60
2018-12-14T11:03:39.753Z,93.90
2018-12-14T11:06:43.058Z,94.20
2018-12-14T11:09:46.292Z,94.30
2018-12-14T11:12:49.749Z,94.10
2018-12-14T11:15:52.976Z,94.20
2018-12-14T11:18:56.246Z,94.40
2018-12-14T11:21:59.452Z,94.40
2018-12-14T11:25:02.742Z,94.60
2018-12-14T11:28:06.038Z,94.10
2018-12-14T11:31:09.248Z,94.60
2018-12-14T11:34:13.336Z,94.40
2018-12-14T11:37:16.645Z,94.10
2018-12-14T11:40:19.852Z,94.40
2018-12-14T11:43:23.136Z,94.70
2018-12-14T11:46:26.420Z,94.10
2018-12-14T11:49:29.681Z,94.00
2018-12-14T11:52:32.906Z,94.40
2018-12-14T11:55:36.223Z,94.50
2018-12-14T11:58:39.563Z,94.80
2018-12-14T12:01:42.825Z,94.80
2018-12-14T12:04:46.110Z,94.30
2018-12-14T12:07:49.718Z,94.60
2018-12-14T12:10:53.120Z,94.30
2018-12-14T12:13:56.328Z,93.70
2018-12-14T12:16:59.629Z,94.30
2018-12-14T12:20:03.900Z,94.50
2018-12-14T12:23:07.136Z,94.40
2018-12-14T12:26:10.421Z,93.80
2018-12-14T12:29:13.721Z,94.10
2018-12-14T12:32:16.928Z,93.70
2018-12-14T12:35:20.213Z,94.50
2018-12-14T12:38:23.524Z,94.60
2018-12-14T12:41:26.746Z,94.50
2018-12-14T12:44:33.521Z,94.60
2018-12-14T12:47:35.196Z,94.80
2018-12-14T12:50:38.425Z,94.10
2018-12-14T12:53:41.657Z,94.00
2018-12-14T12:56:44.928Z,94.00
2018-12-14T12:59:48.227Z,94.10
2018-12-14T13:02:51.525Z,94.00
2018-12-14T13:05:54.827Z,94.00
2018-12-14T13:08:58.140Z,93.90
2018-12-14T13:12:01.415Z,94.50
2018-12-14T13:15:06.200Z,94.50
2018-12-14T13:18:09.453Z,94.00
2018-12-14T13:21:12.743Z,94.20
2018-12-14T13:24:16.040Z,93.30
2018-12-14T13:27:20.427Z,93.40
2018-12-14T13:30:23.861Z,93.50
2018-12-14T13:33:27.669Z,93.10
2018-12-14T13:36:30.890Z,93.40
2018-12-14T13:39:34.162Z,93.10
2018-12-14T13:42:37.381Z,93.50
2018-12-14T13:45:40.652Z,93.40
2018-12-14T13:48:44.052Z,93.30
2018-12-14T13:51:47.340Z,94.00
2018-12-14T13:54:50.647Z,93.70
2018-12-14T13:57:53.880Z,94.10
2018-12-14T14:00:57.236Z,94.00
2018-12-14T14:04:00.458Z,93.70
2018-12-14T14:07:03.714Z,94.10
2018-12-14T14:10:07.389Z,94.10
2018-12-14T14:13:10.634Z,93.70
2018-12-14T14:16:13.857Z,93.90
2018-12-14T14:19:17.093Z,93.70
2018-12-14T14:22:20.729Z,93.70
2018-12-14T14:25:24.334Z,93.70
2018-12-14T14:28:27.634Z,93.40
2018-12-14T14:31:30.929Z,93.70
2018-12-14T14:34:34.229Z,93.50
2018-12-14T14:37:37.428Z,93.90
2018-12-14T14:40:40.717Z,93.40
2018-12-14T14:43:44.018Z,93.40
2018-12-14T14:46:47.312Z,93.40
2018-12-14T14:49:50.613Z,93.70
2018-12-14T14:52:53.910Z,93.80
2018-12-14T14:55:57.187Z,93.80
2018-12-14T14:59:00.405Z,93.80
2018-12-14T15:02:03.788Z,93.50
2018-12-14T15:05:07.078Z,93.90
2018-12-14T15:08:10.280Z,93.80
2018-12-14T15:11:13.586Z,94.20
2018-12-14T15:14:16.901Z,94.00
2018-12-14T15:17:20.183Z,93.70
2018-12-14T15:20:23.416Z,94.20
2018-12-14T15:23:26.781Z,94.10
2018-12-14T15:26:30.094Z,93.90
2018-12-14T15:29:33.373Z,93.90
2018-12-14T15:32:36.644Z,94.00
2018-12-14T15:35:39.876Z,94.10
2018-12-14T15:38:43.125Z,93.90
2018-12-14T15:41:46.385Z,93.80
2018-12-14T15:44:49.611Z,94.00
2018-12-14T15:47:52.951Z,94.00
2018-12-14T15:50:56.179Z,93.70
2018-12-14T15:53:59.423Z,94.00
2018-12-14T15:57:02.739Z,94.00
2018-12-14T16:00:07.928Z,94.00
2018-12-14T16:03:11.152Z,93.80
2018-12-14T16:06:14.404Z,94.00
2018-12-14T16:09:17.649Z,93.70
2018-12-14T16:12:20.887Z,94.10
2018-12-14T16:15:24.117Z,94.10
2018-12-14T16:18:27.439Z,93.80
2018-12-14T16:21:30.855Z,93.80
2018-12-14T16:24:34.255Z,94.10
2018-12-14T16:27:37.952Z,94.50
2018-12-14T16:30:41.433Z,94.40
2018-12-14T16:33:44.720Z,94.70
2018-12-14T16:36:47.983Z,94.60
2018-12-14T16:39:51.322Z,94.80
2018-12-14T16:42:54.541Z,94.60
2018-12-14T16:45:57.849Z,94.30
2018-12-14T16:49:01.234Z,94.60
2018-12-14T16:52:04.514Z,94.60
2018-12-14T16:55:07.930Z,94.50
2018-12-14T16:58:11.241Z,94.40
2018-12-14T17:01:14.641Z,94.30
2018-12-14T17:04:17.936Z,94.40
2018-12-14T17:07:21.235Z,94.30
2018-12-14T17:10:24.531Z,94.20
2018-12-14T17:13:28.729Z,94.20
2018-12-14T17:16:32.048Z,94.00
2018-12-14T17:19:35.264Z,94.50
2018-12-14T17:22:38.647Z,94.60
2018-12-14T17:25:41.981Z,94.30
2018-12-14T17:28:45.337Z,94.30
2018-12-14T17:31:48.635Z,94.30
2018-12-14T17:34:51.841Z,94.30
2018-12-14T17:37:55.100Z,94.50
2018-12-14T17:40:58.409Z,94.90
2018-12-14T17:44:01.621Z,94.90
2018-12-14T17:47:04.916Z,94.80
2018-12-14T17:50:08.508Z,94.50
2018-12-14T17:53:11.817Z,94.60
2018-12-14T17:56:15.028Z,94.40
2018-12-14T17:59:18.262Z,94.20
2018-12-14T18:02:21.484Z,94.00
2018-12-14T18:05:24.801Z,94.50
2018-12-14T18:08:28.008Z,95.10
2018-12-14T18:11:31.484Z,94.40
2018-12-14T18:14:34.797Z,94.50
2018-12-14T18:17:38.012Z,94.30
2018-12-14T18:20:41.286Z,93.80
2018-12-14T18:23:44.521Z,93.80
2018-12-14T18:26:47.778Z,93.90
2018-12-14T18:29:51.031Z,94.00
2018-12-14T18:32:54.266Z,94.30
2018-12-14T18:35:57.612Z,94.10
2018-12-14T18:39:00.965Z,94.00
2018-12-14T18:42:04.241Z,94.10
2018-12-14T18:45:07.666Z,94.10
2018-12-14T18:48:10.943Z,93.80
2018-12-14T18:51:14.156Z,93.90
2018-12-14T18:54:17.532Z,94.10
2018-12-14T18:57:20.852Z,93.70
2018-12-14T19:00:24.080Z,93.80
2018-12-14T19:03:27.344Z,93.80
2018-12-14T19:06:30.577Z,93.60
2018-12-14T19:09:34.142Z,93.50
2018-12-14T19:12:37.441Z,93.50
2018-12-14T19:15:40.739Z,93.60
2018-12-14T19:18:44.036Z,93.60
2018-12-14T19:21:47.437Z,93.60
2018-12-14T19:24:50.666Z,93.80
2018-12-14T19:27:53.954Z,94.00
2018-12-14T19:30:57.225Z,94.10
2018-12-14T19:34:00.521Z,94.30
2018-12-14T19:37:03.772Z,94.40
2018-12-14T19:40:09.482Z,94.10
2018-12-14T19:43:12.740Z,93.80
2018-12-14T19:46:16.011Z,93.30
2018-12-14T19:49:19.222Z,93.30
2018-12-14T19:52:22.491Z,93.30
2018-12-14T19:55:25.720Z,93.30
2018-12-14T19:58:28.947Z,93.20
2018-12-14T20:01:32.250Z,93.30
2018-12-14T20:04:35.481Z,93.80
2018-12-14T20:07:38.781Z,93.60
2018-12-14T20:10:42.149Z,93.70
2018-12-14T20:13:45.386Z,93.60
2018-12-14T20:16:48.837Z,93.70
2018-12-14T20:19:52.069Z,93.60
2018-12-14T20:22:55.305Z,94.00
2018-12-14T20:25:58.619Z,94.10
2018-12-14T20:29:01.848Z,94.30
2018-12-14T20:32:05.113Z,94.30
2018-12-14T20:35:08.707Z,94.30
2018-12-14T20:38:12.016Z,94.00
2018-12-14T20:41:15.385Z,94.20
2018-12-14T20:44:18.748Z,94.80
2018-12-14T20:47:22.118Z,94.80
2018-12-14T20:50:25.354Z,94.40
2018-12-14T20:53:28.601Z,94.70
2018-12-14T20:56:32.000Z,94.70
2018-12-14T20:59:35.211Z,95.10
2018-12-14T21:02:38.493Z,95.30
2018-12-14T21:05:41.696Z,94.80
2018-12-14T21:08:45.087Z,95.10
2018-12-14T21:11:48.353Z,94.70
2018-12-14T21:14:51.579Z,94.50
2018-12-14T21:17:54.817Z,94.80
2018-12-14T21:20:58.172Z,94.90
2018-12-14T21:24:01.413Z,94.20
2018-12-14T21:27:04.767Z,94.00
2018-12-14T21:30:10.249Z,93.90
2018-12-14T21:33:13.483Z,93.60
2018-12-14T21:36:16.773Z,93.60
2018-12-14T21:39:20.106Z,93.70
2018-12-14T21:42:23.319Z,93.80
2018-12-14T21:45:26.680Z,93.60
2018-12-14T21:48:29.889Z,93.70
2018-12-14T21:51:33.220Z,94.10
2018-12-14T21:54:36.526Z,94.20
2018-12-14T21:57:40.267Z,94.50
2018-12-14T22:00:43.594Z,94.60
2018-12-14T22:03:46.801Z,94.60
2018-12-14T22:06:50.029Z,94.40
2018-12-14T22:09:53.261Z,94.50
2018-12-14T22:12:56.683Z,94.50
2018-12-14T22:15:59.948Z,94.90
2018-12-14T22:19:03.308Z,94.60
2018-12-14T22:22:06.675Z,94.70
2018-12-14T22:25:09.952Z,94.60
2018-12-14T22:28:13.186Z,94.70
2018-12-14T22:31:16.451Z,95.10
2018-12-14T22:34:19.724Z,94.90
2018-12-14T22:37:22.953Z,94.80
2018-12-14T22:40:26.209Z,94.50
2018-12-14T22:43:29.447Z,94.40
2018-12-14T22:46:32.710Z,94.20
2018-12-14T22:49:35.926Z,94.20
2018-12-14T22:52:39.155Z,94.20
2018-12-14T22:55:42.389Z,94.00
2018-12-14T22:58:45.822Z,94.20
2018-12-14T23:01:49.062Z,94.30
2018-12-14T23:04:52.305Z,93.90
2018-12-14T23:07:55.525Z,94.10
2018-12-14T23:10:58.816Z,94.20
2018-12-14T23:14:02.020Z,94.10
2018-12-14T23:17:05.296Z,94.10
2018-12-14T23:20:08.652Z,94.20
2018-12-14T23:23:11.994Z,94.00
2018-12-14T23:26:15.219Z,94.10
2018-12-14T23:29:18.449Z,94.10
2018-12-14T23:32:21.851Z,94.20
2018-12-14T23:35:25.189Z,94.10
2018-12-14T23:38:28.399Z,94.20
2018-12-14T23:41:31.681Z,93.80
2018-12-14T23:44:34.889Z,94.00
2018-12-14T23:47:38.171Z,94.20
2018-12-14T23:50:41.417Z,94.20
2018-12-14T23:53:44.729Z,94.30
2018-12-14T23:56:47.967Z,94.90
2018-12-14T23:59:51.292Z,94.40
